Main page
METAR-TAF:

METAR-TAF

Airports :

León, Spain

León Airport

latitude: 42-35N, longitude: 005-39W, elevation: 926 m

Current weather observation

The report was made 3 hours and 54 minutes ago, at 20:00 UTC
Calm wind
Temperature 7°C
Humidity 66%
Pressure 1023 hPa
Visibility 10 km or more
no clouds below 1500 m and no cumulonimbus

METAR: LELN 182000Z 00000KT CAVOK 07/01 Q1023

Time: 00:54 (23:54 UTC)

Forecast

The report was made 6 hours and 54 minutes ago, at 17:00 UTC
Forecast valid from 18 at 18 UTC to 19 at 03 UTC
Wind 10 kt from the North
Visibility 10 km or more
Few clouds at a height of 4500 ft

TAF: LELN 181700Z 1818/1903 01010KT 9999 FEW045

Weather observations and forecasts of more than 4000 airports (METAR and TAF reports).

The available stations are represented by yellow and red dots on the map.

Hover mouse over dot to see the name of the station.

Then click to see weather observations and forecasts.

To change the map : click on the green buttons with a black cross to zoom in, on the green button with a dash to zoom out, or on the green arrows for adjacent maps.


METAR-TAF: